createdAt,value
2019-05-31T00:00:12.832Z,1013.04
2019-05-31T00:01:12.813Z,1013.05
2019-05-31T00:02:12.798Z,1013.05
2019-05-31T00:03:12.780Z,1013.01
2019-05-31T00:04:12.761Z,1013
2019-05-31T00:05:12.745Z,1012.99
2019-05-31T00:06:12.726Z,1013
2019-05-31T00:07:12.709Z,1012.95
2019-05-31T00:08:12.690Z,1012.99
2019-05-31T00:09:12.678Z,1012.98
2019-05-31T00:10:12.656Z,1012.92
2019-05-31T00:11:12.636Z,1012.96
2019-05-31T00:12:12.618Z,1012.89
2019-05-31T00:13:12.600Z,1012.9
2019-05-31T00:14:20.224Z,1012.87
2019-05-31T00:15:12.565Z,1012.87
2019-05-31T00:16:12.547Z,1012.84
2019-05-31T00:17:12.531Z,1012.89
2019-05-31T00:18:12.516Z,1012.89
2019-05-31T00:19:12.505Z,1012.86
2019-05-31T00:20:12.478Z,1012.88
2019-05-31T00:21:12.458Z,1012.83
2019-05-31T00:22:13.523Z,1012.84
2019-05-31T00:23:12.422Z,1012.79
2019-05-31T00:24:12.408Z,1012.84
2019-05-31T00:25:12.387Z,1012.81
2019-05-31T00:26:12.371Z,1012.85
2019-05-31T00:27:12.351Z,1012.85
2019-05-31T00:28:12.340Z,1012.88
2019-05-31T00:29:12.316Z,1012.82
2019-05-31T00:30:12.298Z,1012.83
2019-05-31T00:31:12.284Z,1012.82
2019-05-31T00:32:12.269Z,1012.84
2019-05-31T00:33:12.246Z,1012.85
2019-05-31T00:34:12.229Z,1012.82
2019-05-31T00:35:12.209Z,1012.83
2019-05-31T00:36:12.192Z,1012.86
2019-05-31T00:37:12.175Z,1012.85
2019-05-31T00:38:12.158Z,1012.87
2019-05-31T00:39:12.140Z,1012.9
2019-05-31T00:40:12.120Z,1012.84
2019-05-31T00:41:12.104Z,1012.82
2019-05-31T00:42:12.086Z,1012.86
2019-05-31T00:43:12.073Z,1012.86
2019-05-31T00:44:12.051Z,1012.82
2019-05-31T00:45:12.033Z,1012.82
2019-05-31T00:46:12.016Z,1012.83
2019-05-31T00:47:11.995Z,1012.82
2019-05-31T00:48:11.989Z,1012.83
2019-05-31T00:49:11.960Z,1012.81
2019-05-31T00:50:11.944Z,1012.82
2019-05-31T00:51:11.925Z,1012.83
2019-05-31T00:52:11.909Z,1012.79
2019-05-31T00:53:11.891Z,1012.81
2019-05-31T00:54:11.873Z,1012.83
2019-05-31T00:55:11.853Z,1012.82
2019-05-31T00:56:11.835Z,1012.76
2019-05-31T00:57:11.820Z,1012.77
2019-05-31T00:58:11.800Z,1012.8
2019-05-31T00:59:11.782Z,1012.79
2019-05-31T01:00:11.766Z,1012.81
2019-05-31T01:01:11.748Z,1012.8
2019-05-31T01:02:11.729Z,1012.78
2019-05-31T01:03:11.712Z,1012.75
2019-05-31T01:04:11.696Z,1012.78
2019-05-31T01:05:11.676Z,1012.75
2019-05-31T01:06:11.658Z,1012.78
2019-05-31T01:07:11.640Z,1012.74
2019-05-31T01:08:11.622Z,1012.76
2019-05-31T01:09:11.604Z,1012.77
2019-05-31T01:10:11.589Z,1012.79
2019-05-31T01:11:11.568Z,1012.74
2019-05-31T01:12:11.552Z,1012.76
2019-05-31T01:13:11.534Z,1012.77
2019-05-31T01:14:11.515Z,1012.78
2019-05-31T01:15:11.499Z,1012.74
2019-05-31T01:16:11.480Z,1012.81
2019-05-31T01:17:12.988Z,1012.82
2019-05-31T01:18:11.445Z,1012.76
2019-05-31T01:19:11.427Z,1012.78
2019-05-31T01:20:11.407Z,1012.81
2019-05-31T01:21:11.396Z,1012.79
2019-05-31T01:22:11.372Z,1012.81
2019-05-31T01:23:11.354Z,1012.78
2019-05-31T01:24:11.338Z,1012.76
2019-05-31T01:25:11.318Z,1012.73
2019-05-31T01:26:11.300Z,1012.78
2019-05-31T01:27:11.283Z,1012.77
2019-05-31T01:28:11.265Z,1012.75
2019-05-31T01:29:11.248Z,1012.75
2019-05-31T01:30:11.229Z,1012.75
2019-05-31T01:31:11.210Z,1012.76
2019-05-31T01:32:11.195Z,1012.75
2019-05-31T01:33:11.174Z,1012.69
2019-05-31T01:34:11.158Z,1012.77
2019-05-31T01:35:11.140Z,1012.72
2019-05-31T01:36:11.122Z,1012.75
2019-05-31T01:37:11.103Z,1012.75
2019-05-31T01:38:11.085Z,1012.74
2019-05-31T01:39:11.067Z,1012.73
2019-05-31T01:40:11.073Z,1012.71
2019-05-31T01:41:11.272Z,1012.74
2019-05-31T01:42:11.190Z,1012.73
2019-05-31T01:43:14.376Z,1012.75
2019-05-31T01:44:11.399Z,1012.77
2019-05-31T01:45:16.790Z,1012.69
2019-05-31T01:46:11.385Z,1012.73
2019-05-31T01:47:11.688Z,1012.71
2019-05-31T01:48:11.875Z,1012.7
2019-05-31T01:49:12.067Z,1012.69
2019-05-31T01:50:11.933Z,1012.66
2019-05-31T01:51:11.897Z,1012.67
2019-05-31T01:52:12.012Z,1012.69
2019-05-31T01:53:12.097Z,1012.69
2019-05-31T01:54:10.800Z,1012.71
2019-05-31T01:55:10.780Z,1012.66
2019-05-31T01:56:10.761Z,1012.61
2019-05-31T01:57:10.743Z,1012.66
2019-05-31T01:58:10.798Z,1012.65
2019-05-31T01:59:10.807Z,1012.61
2019-05-31T02:00:10.989Z,1012.58
2019-05-31T02:01:11.404Z,1012.61
2019-05-31T02:02:11.298Z,1012.64
2019-05-31T02:03:10.635Z,1012.61
2019-05-31T02:04:10.617Z,1012.63
2019-05-31T02:05:10.843Z,1012.64
2019-05-31T02:06:10.580Z,1012.64
2019-05-31T02:07:10.660Z,1012.68
2019-05-31T02:08:11.052Z,1012.68
2019-05-31T02:09:10.868Z,1012.66
2019-05-31T02:10:10.894Z,1012.64
2019-05-31T02:11:10.772Z,1012.66
2019-05-31T02:12:11.084Z,1012.61
2019-05-31T02:13:11.176Z,1012.62
2019-05-31T02:14:10.465Z,1012.58
2019-05-31T02:15:26.540Z,1012.57
2019-05-31T02:16:10.400Z,1012.58
2019-05-31T02:17:11.303Z,1012.59
2019-05-31T02:18:10.578Z,1012.62
2019-05-31T02:19:12.610Z,1012.6
2019-05-31T02:20:10.640Z,1012.65
2019-05-31T02:21:10.311Z,1012.6
2019-05-31T02:22:10.672Z,1012.61
2019-05-31T02:23:10.272Z,1012.63
2019-05-31T02:24:11.008Z,1012.67
2019-05-31T02:25:10.573Z,1012.59
2019-05-31T02:26:11.165Z,1012.6
2019-05-31T02:27:11.244Z,1012.6
2019-05-31T02:28:11.327Z,1012.6
2019-05-31T02:29:11.437Z,1012.6
2019-05-31T02:30:12.848Z,1012.59
2019-05-31T02:31:10.497Z,1012.61
2019-05-31T02:32:10.925Z,1012.62
2019-05-31T02:33:10.599Z,1012.64
2019-05-31T02:34:10.500Z,1012.65
2019-05-31T02:35:12.049Z,1012.6
2019-05-31T02:36:11.388Z,1012.67
2019-05-31T02:37:10.640Z,1012.68
2019-05-31T02:38:11.964Z,1012.69
2019-05-31T02:39:11.828Z,1012.67
2019-05-31T02:40:11.966Z,1012.65
2019-05-31T02:41:11.684Z,1012.68
2019-05-31T02:42:11.277Z,1012.63
2019-05-31T02:43:11.693Z,1012.64
2019-05-31T02:44:11.708Z,1012.64
2019-05-31T02:45:11.922Z,1012.64
2019-05-31T02:46:10.996Z,1012.64
2019-05-31T02:47:11.493Z,1012.62
2019-05-31T02:48:10.112Z,1012.61
2019-05-31T02:49:10.130Z,1012.65
2019-05-31T02:50:10.638Z,1012.61
2019-05-31T02:51:10.594Z,1012.62
2019-05-31T02:52:10.901Z,1012.58
2019-05-31T02:53:10.172Z,1012.62
2019-05-31T02:54:10.524Z,1012.61
2019-05-31T02:55:10.652Z,1012.62
2019-05-31T02:56:10.680Z,1012.6
2019-05-31T02:57:10.424Z,1012.6
2019-05-31T02:58:10.753Z,1012.61
2019-05-31T02:59:10.768Z,1012.59
2019-05-31T03:00:11.367Z,1012.56
2019-05-31T03:01:11.109Z,1012.57
2019-05-31T03:02:11.246Z,1012.58
2019-05-31T03:03:10.969Z,1012.56
2019-05-31T03:04:09.538Z,1012.58
2019-05-31T03:05:09.662Z,1012.52
2019-05-31T03:06:09.780Z,1012.51
2019-05-31T03:07:10.182Z,1012.52
2019-05-31T03:08:10.020Z,1012.53
2019-05-31T03:09:10.098Z,1012.53
2019-05-31T03:10:10.437Z,1012.54
2019-05-31T03:11:10.522Z,1012.56
2019-05-31T03:12:10.346Z,1012.49
2019-05-31T03:13:10.432Z,1012.5
2019-05-31T03:14:10.779Z,1012.51
2019-05-31T03:15:11.218Z,1012.5
2019-05-31T03:16:11.022Z,1012.48
2019-05-31T03:17:10.613Z,1012.52
2019-05-31T03:18:09.283Z,1012.5
2019-05-31T03:19:09.265Z,1012.5
2019-05-31T03:20:09.252Z,1012.52
2019-05-31T03:21:09.227Z,1012.52
2019-05-31T03:22:09.210Z,1012.51
2019-05-31T03:23:09.193Z,1012.59
2019-05-31T03:24:09.175Z,1012.6
2019-05-31T03:25:09.156Z,1012.54
2019-05-31T03:26:09.138Z,1012.56
2019-05-31T03:27:09.120Z,1012.59
2019-05-31T03:28:09.103Z,1012.62
2019-05-31T03:29:09.086Z,1012.6
2019-05-31T03:30:09.067Z,1012.64
2019-05-31T03:31:09.050Z,1012.64
2019-05-31T03:32:09.031Z,1012.66
2019-05-31T03:33:09.012Z,1012.65
2019-05-31T03:34:08.996Z,1012.73
2019-05-31T03:35:08.977Z,1012.69
2019-05-31T03:36:08.959Z,1012.78
2019-05-31T03:37:08.941Z,1012.77
2019-05-31T03:38:08.922Z,1012.78
2019-05-31T03:39:08.906Z,1012.76
2019-05-31T03:40:08.887Z,1012.77
2019-05-31T03:41:08.868Z,1012.8
2019-05-31T03:42:08.855Z,1012.82
2019-05-31T03:43:08.835Z,1012.81
2019-05-31T03:44:08.812Z,1012.81
2019-05-31T03:45:08.815Z,1012.84
2019-05-31T03:46:25.834Z,1012.87
2019-05-31T03:47:08.758Z,1012.84
2019-05-31T03:48:08.741Z,1012.86
2019-05-31T03:49:08.734Z,1012.84
2019-05-31T03:50:08.707Z,1012.87
2019-05-31T03:51:08.693Z,1012.87
2019-05-31T03:52:08.688Z,1012.87
2019-05-31T03:53:08.651Z,1012.91
2019-05-31T03:54:08.630Z,1012.87
2019-05-31T03:55:08.617Z,1012.9
2019-05-31T03:56:08.605Z,1012.84
2019-05-31T03:57:08.578Z,1012.87
2019-05-31T03:58:08.559Z,1012.83
2019-05-31T03:59:08.542Z,1012.84
2019-05-31T04:00:08.524Z,1012.89
2019-05-31T04:01:08.505Z,1012.9
2019-05-31T04:02:08.486Z,1012.88
2019-05-31T04:03:08.477Z,1012.92
2019-05-31T04:04:08.452Z,1012.88
2019-05-31T04:05:08.430Z,1012.92
2019-05-31T04:06:08.414Z,1012.92
2019-05-31T04:07:08.395Z,1012.93
2019-05-31T04:08:08.378Z,1012.92
2019-05-31T04:09:08.358Z,1012.83
2019-05-31T04:10:08.341Z,1012.96
2019-05-31T04:11:08.320Z,1012.97
2019-05-31T04:12:08.305Z,1012.95
2019-05-31T04:13:08.284Z,1012.94
2019-05-31T04:14:08.270Z,1012.95
2019-05-31T04:15:08.248Z,1013
2019-05-31T04:16:08.235Z,1012.98
2019-05-31T04:17:08.212Z,1013
2019-05-31T04:18:08.196Z,1013.02
2019-05-31T04:19:08.175Z,1012.95
2019-05-31T04:20:08.162Z,1012.99
2019-05-31T04:21:08.142Z,1013.03
2019-05-31T04:22:08.123Z,1013.04
2019-05-31T04:23:08.104Z,1013.02
2019-05-31T04:24:08.087Z,1013.05
2019-05-31T04:25:08.072Z,1013.06
2019-05-31T04:26:08.050Z,1013.07
2019-05-31T04:27:08.032Z,1013.09
2019-05-31T04:28:08.014Z,1013.08
2019-05-31T04:29:07.998Z,1013.11
2019-05-31T04:30:07.978Z,1013.12
2019-05-31T04:31:07.960Z,1013.08
2019-05-31T04:32:07.945Z,1013.1
2019-05-31T04:33:07.923Z,1013.11
2019-05-31T04:34:07.913Z,1013.09
2019-05-31T04:35:07.890Z,1013.02
2019-05-31T04:36:07.869Z,1013.1
2019-05-31T04:37:07.853Z,1013.13
2019-05-31T04:38:07.835Z,1013.12
2019-05-31T04:39:07.817Z,1013.15
2019-05-31T04:40:07.800Z,1013.11
2019-05-31T04:41:07.785Z,1013.13
2019-05-31T04:42:07.765Z,1013.08
2019-05-31T04:43:07.745Z,1013.17
2019-05-31T04:44:07.728Z,1013.13
2019-05-31T04:45:07.709Z,1013.19
2019-05-31T04:46:07.692Z,1013.2
2019-05-31T04:47:11.127Z,1013.15
2019-05-31T04:48:07.655Z,1013.17
2019-05-31T04:49:07.635Z,1013.2
2019-05-31T04:50:07.624Z,1013.16
2019-05-31T04:51:07.602Z,1013.15
2019-05-31T04:52:07.584Z,1013.16
2019-05-31T04:53:07.573Z,1013.16
2019-05-31T04:54:09.891Z,1013.19
2019-05-31T04:55:07.530Z,1013.21
2019-05-31T04:56:07.512Z,1013.19
2019-05-31T04:57:07.503Z,1013.23
2019-05-31T04:58:07.476Z,1013.25
2019-05-31T04:59:07.463Z,1013.21
2019-05-31T05:00:07.439Z,1013.19
2019-05-31T05:01:07.422Z,1013.2
2019-05-31T05:02:07.512Z,1013.18
2019-05-31T05:03:07.499Z,1013.21
2019-05-31T05:04:07.368Z,1013.19
2019-05-31T05:05:07.352Z,1013.17
2019-05-31T05:06:07.341Z,1013.2
2019-05-31T05:07:07.316Z,1013.23
2019-05-31T05:08:07.297Z,1013.22
2019-05-31T05:09:07.282Z,1013.17
2019-05-31T05:10:07.262Z,1013.24
2019-05-31T05:11:07.248Z,1013.19
2019-05-31T05:12:07.228Z,1013.2
2019-05-31T05:13:07.211Z,1013.2
2019-05-31T05:14:07.194Z,1013.21
2019-05-31T05:15:07.179Z,1013.24
2019-05-31T05:16:07.160Z,1013.25
2019-05-31T05:17:07.142Z,1013.24
2019-05-31T05:18:07.123Z,1013.25
2019-05-31T05:19:07.116Z,1013.24
2019-05-31T05:20:07.089Z,1013.22
2019-05-31T05:21:07.072Z,1013.23
2019-05-31T05:22:07.055Z,1013.3
2019-05-31T05:23:07.037Z,1013.22
2019-05-31T05:24:07.023Z,1013.3
2019-05-31T05:25:07.006Z,1013.28
2019-05-31T05:26:06.986Z,1013.31
2019-05-31T05:27:06.972Z,1013.3
2019-05-31T05:28:06.952Z,1013.3
2019-05-31T05:29:06.935Z,1013.27
2019-05-31T05:30:06.918Z,1013.31
2019-05-31T05:31:06.902Z,1013.3
2019-05-31T05:32:06.884Z,1013.32
2019-05-31T05:33:06.868Z,1013.26
2019-05-31T05:34:06.851Z,1013.26
2019-05-31T05:35:06.841Z,1013.27
2019-05-31T05:36:06.818Z,1013.3
2019-05-31T05:37:06.803Z,1013.29
2019-05-31T05:38:06.786Z,1013.35
2019-05-31T05:39:06.770Z,1013.34
2019-05-31T05:40:06.758Z,1013.37
2019-05-31T05:41:06.737Z,1013.36
2019-05-31T05:42:06.719Z,1013.37
2019-05-31T05:43:06.704Z,1013.38
2019-05-31T05:44:06.688Z,1013.37
2019-05-31T05:45:06.677Z,1013.45
2019-05-31T05:46:06.654Z,1013.47
2019-05-31T05:47:06.637Z,1013.45
2019-05-31T05:48:06.620Z,1013.38
2019-05-31T05:49:09.393Z,1013.42
2019-05-31T05:50:06.589Z,1013.38
2019-05-31T05:51:06.575Z,1013.43
2019-05-31T05:52:06.566Z,1013.46
2019-05-31T05:53:06.603Z,1013.47
2019-05-31T05:54:06.526Z,1013.45
2019-05-31T05:55:06.762Z,1013.48
2019-05-31T05:56:06.922Z,1013.44
2019-05-31T05:57:07.214Z,1013.46
2019-05-31T05:58:06.596Z,1013.44
2019-05-31T05:59:06.685Z,1013.37
2019-05-31T06:00:06.700Z,1013.38
2019-05-31T06:01:06.416Z,1013.39
2019-05-31T06:02:06.399Z,1013.5
2019-05-31T06:03:06.383Z,1013.46
2019-05-31T06:04:06.369Z,1013.46
2019-05-31T06:05:06.359Z,1013.51
2019-05-31T06:06:06.337Z,1013.56
2019-05-31T06:07:06.324Z,1013.55
2019-05-31T06:08:06.309Z,1013.59
2019-05-31T06:09:06.292Z,1013.53
2019-05-31T06:10:06.275Z,1013.64
2019-05-31T06:11:06.263Z,1013.62
2019-05-31T06:12:06.245Z,1013.61
2019-05-31T06:13:06.411Z,1013.68
2019-05-31T06:14:06.470Z,1013.67
2019-05-31T06:15:06.702Z,1013.73
2019-05-31T06:16:06.184Z,1013.65
2019-05-31T06:17:06.452Z,1013.66
2019-05-31T06:18:06.152Z,1013.61
2019-05-31T06:19:06.138Z,1013.72
2019-05-31T06:20:06.122Z,1013.65
2019-05-31T06:21:06.105Z,1013.67
2019-05-31T06:22:06.090Z,1013.62
2019-05-31T06:23:06.075Z,1013.65
2019-05-31T06:24:06.056Z,1013.6
2019-05-31T06:25:06.060Z,1013.59
2019-05-31T06:26:06.029Z,1013.64
2019-05-31T06:27:06.012Z,1013.64
2019-05-31T06:28:05.994Z,1013.66
2019-05-31T06:29:05.980Z,1013.65
2019-05-31T06:30:05.964Z,1013.69
2019-05-31T06:31:06.567Z,1013.71
2019-05-31T06:32:05.933Z,1013.69
2019-05-31T06:33:05.916Z,1013.64
2019-05-31T06:34:05.905Z,1013.66
2019-05-31T06:35:05.885Z,1013.64
2019-05-31T06:36:05.880Z,1013.66
2019-05-31T06:37:05.855Z,1013.63
2019-05-31T06:38:05.839Z,1013.62
2019-05-31T06:39:06.225Z,1013.64
2019-05-31T06:40:06.543Z,1013.51
2019-05-31T06:41:05.933Z,1013.48
2019-05-31T06:42:05.779Z,1013.55
2019-05-31T06:43:05.763Z,1013.52
2019-05-31T06:44:05.748Z,1013.61
2019-05-31T06:45:05.734Z,1013.5
2019-05-31T06:46:05.722Z,1013.5
2019-05-31T06:47:05.714Z,1013.51
2019-05-31T06:48:18.701Z,1013.51
2019-05-31T06:49:05.679Z,1013.51
2019-05-31T06:50:05.663Z,1013.56
2019-05-31T06:51:05.652Z,1013.58
2019-05-31T06:52:05.638Z,1013.61
2019-05-31T06:53:05.625Z,1013.65
2019-05-31T06:54:05.621Z,1013.67
2019-05-31T06:55:05.602Z,1013.73
2019-05-31T06:56:05.584Z,1013.71
2019-05-31T06:57:05.573Z,1013.74
2019-05-31T06:58:05.559Z,1013.65
2019-05-31T06:59:05.547Z,1013.71
2019-05-31T07:00:05.534Z,1013.71
2019-05-31T07:01:05.522Z,1013.68
2019-05-31T07:02:05.505Z,1013.72
2019-05-31T07:03:05.493Z,1013.68
2019-05-31T07:04:05.479Z,1013.68
2019-05-31T07:05:05.467Z,1013.69
2019-05-31T07:06:05.543Z,1013.74
2019-05-31T07:07:05.438Z,1013.7
2019-05-31T07:08:05.426Z,1013.7
2019-05-31T07:09:05.412Z,1013.65
2019-05-31T07:10:05.399Z,1013.73
2019-05-31T07:11:05.388Z,1013.71
2019-05-31T07:12:16.489Z,1013.71
2019-05-31T07:13:05.360Z,1013.73
2019-05-31T07:14:05.348Z,1013.71
2019-05-31T07:15:05.333Z,1013.69
2019-05-31T07:16:05.321Z,1013.66
2019-05-31T07:17:05.315Z,1013.67
2019-05-31T07:18:05.313Z,1013.72
2019-05-31T07:19:05.310Z,1013.61
2019-05-31T07:20:05.350Z,1013.68
2019-05-31T07:21:05.259Z,1013.62
2019-05-31T07:22:05.246Z,1013.62
2019-05-31T07:23:05.235Z,1013.65
2019-05-31T07:24:05.225Z,1013.63
2019-05-31T07:25:05.212Z,1013.69
2019-05-31T07:26:05.202Z,1013.7
2019-05-31T07:27:05.189Z,1013.69
2019-05-31T07:28:05.567Z,1013.73
2019-05-31T07:29:05.630Z,1013.81
2019-05-31T07:30:05.532Z,1013.72
2019-05-31T07:31:05.480Z,1013.75
2019-05-31T07:32:05.146Z,1013.79
2019-05-31T07:33:05.272Z,1013.77
2019-05-31T07:34:05.368Z,1013.72
2019-05-31T07:35:05.106Z,1013.72
2019-05-31T07:36:05.099Z,1013.7
2019-05-31T07:37:05.090Z,1013.74
2019-05-31T07:38:07.568Z,1013.69
2019-05-31T07:39:05.065Z,1013.69
2019-05-31T07:40:05.064Z,1013.63
2019-05-31T07:41:05.047Z,1013.61
2019-05-31T07:42:05.569Z,1013.72
2019-05-31T07:43:05.024Z,1013.72
2019-05-31T07:44:05.012Z,1013.71
2019-05-31T07:45:05.117Z,1013.72
2019-05-31T07:46:04.993Z,1013.72
2019-05-31T07:47:08.110Z,1013.75
2019-05-31T07:48:04.974Z,1013.69
2019-05-31T07:49:07.819Z,1013.75
2019-05-31T07:50:05.556Z,1013.76
2019-05-31T07:51:04.949Z,1013.75
2019-05-31T07:52:04.939Z,1013.79
2019-05-31T07:53:04.929Z,1013.79
2019-05-31T07:54:04.921Z,1013.76
2019-05-31T07:55:04.913Z,1013.73
2019-05-31T07:56:04.902Z,1013.77
2019-05-31T07:57:04.893Z,1013.76
2019-05-31T07:58:04.916Z,1013.74
2019-05-31T07:59:04.874Z,1013.7
2019-05-31T08:00:04.865Z,1013.7
2019-05-31T08:01:05.213Z,1013.66
2019-05-31T08:02:05.134Z,1013.67
2019-05-31T08:03:04.838Z,1013.7
2019-05-31T08:04:04.830Z,1013.7
2019-05-31T08:05:04.822Z,1013.69
2019-05-31T08:06:04.808Z,1013.72
2019-05-31T08:07:04.800Z,1013.73
2019-05-31T08:08:04.793Z,1013.69
2019-05-31T08:09:04.806Z,1013.82
2019-05-31T08:10:04.773Z,1013.62
2019-05-31T08:11:04.768Z,1013.64
2019-05-31T08:12:04.756Z,1013.74
2019-05-31T08:13:04.769Z,1013.69
2019-05-31T08:14:04.741Z,1013.67
2019-05-31T08:15:04.728Z,1013.67
2019-05-31T08:16:04.721Z,1013.71
2019-05-31T08:17:04.720Z,1013.76
2019-05-31T08:18:04.705Z,1013.67
2019-05-31T08:19:15.223Z,1013.67
2019-05-31T08:20:05.451Z,1013.68
2019-05-31T08:21:04.689Z,1013.59
2019-05-31T08:22:05.352Z,1013.64
2019-05-31T08:23:04.664Z,1013.64
2019-05-31T08:24:04.684Z,1013.66
2019-05-31T08:25:04.651Z,1013.6
2019-05-31T08:26:04.644Z,1013.58
2019-05-31T08:27:04.632Z,1013.51
2019-05-31T08:28:04.742Z,1013.57
2019-05-31T08:29:04.617Z,1013.65
2019-05-31T08:30:04.664Z,1013.61
2019-05-31T08:31:04.599Z,1013.59
2019-05-31T08:32:04.591Z,1013.59
2019-05-31T08:33:04.585Z,1013.67
2019-05-31T08:34:04.575Z,1013.6
2019-05-31T08:35:04.567Z,1013.61
2019-05-31T08:36:04.559Z,1013.61
2019-05-31T08:37:08.609Z,1013.59
2019-05-31T08:38:04.542Z,1013.62
2019-05-31T08:39:04.535Z,1013.55
2019-05-31T08:40:04.529Z,1013.48
2019-05-31T08:41:04.522Z,1013.43
2019-05-31T08:42:04.515Z,1013.46
2019-05-31T08:43:04.504Z,1013.45
2019-05-31T08:44:04.500Z,1013.44
2019-05-31T08:45:06.797Z,1013.45
2019-05-31T08:46:06.037Z,1013.49
2019-05-31T08:47:04.478Z,1013.4
2019-05-31T08:48:04.511Z,1013.48
2019-05-31T08:49:04.471Z,1013.43
2019-05-31T08:50:04.666Z,1013.41
2019-05-31T08:51:04.467Z,1013.42
2019-05-31T08:52:04.546Z,1013.44
2019-05-31T08:53:04.440Z,1013.43
2019-05-31T08:54:04.436Z,1013.49
2019-05-31T08:55:04.427Z,1013.51
2019-05-31T08:56:04.421Z,1013.5
2019-05-31T08:57:05.749Z,1013.5
2019-05-31T08:58:05.511Z,1013.52
2019-05-31T08:59:04.403Z,1013.53
2019-05-31T09:00:04.398Z,1013.58
2019-05-31T09:01:05.737Z,1013.51
2019-05-31T09:02:10.079Z,1013.51
2019-05-31T09:03:04.415Z,1013.53
2019-05-31T09:04:04.795Z,1013.52
2019-05-31T09:05:04.802Z,1013.52
2019-05-31T09:06:04.376Z,1013.55
2019-05-31T09:07:05.256Z,1013.58
2019-05-31T09:08:04.356Z,1013.64
2019-05-31T09:09:04.350Z,1013.64
2019-05-31T09:10:04.347Z,1013.74
2019-05-31T09:11:04.788Z,1013.63
2019-05-31T09:12:05.229Z,1013.6
2019-05-31T09:13:04.335Z,1013.6
2019-05-31T09:14:04.645Z,1013.59
2019-05-31T09:15:04.320Z,1013.61
2019-05-31T09:16:04.332Z,1013.62
2019-05-31T09:17:04.312Z,1013.64
2019-05-31T09:18:04.309Z,1013.63
2019-05-31T09:19:04.300Z,1013.64
2019-05-31T09:20:04.296Z,1013.68
2019-05-31T09:21:04.305Z,1013.64
2019-05-31T09:22:04.288Z,1013.68
2019-05-31T09:23:04.334Z,1013.75
2019-05-31T09:24:04.330Z,1013.62
2019-05-31T09:25:04.285Z,1013.66
2019-05-31T09:26:04.274Z,1013.6
2019-05-31T09:27:04.355Z,1013.58
2019-05-31T09:28:04.369Z,1013.56
2019-05-31T09:29:04.372Z,1013.59
2019-05-31T09:30:18.603Z,1013.63
2019-05-31T09:31:04.545Z,1013.58
2019-05-31T09:32:04.250Z,1013.66
2019-05-31T09:33:04.244Z,1013.67
2019-05-31T09:34:05.620Z,1013.67
2019-05-31T09:35:04.237Z,1013.64
2019-05-31T09:36:04.233Z,1013.71
2019-05-31T09:37:04.229Z,1013.68
2019-05-31T09:38:04.223Z,1013.71
2019-05-31T09:39:04.452Z,1013.65
2019-05-31T09:40:04.215Z,1013.65
2019-05-31T09:41:04.207Z,1013.59
2019-05-31T09:42:04.208Z,1013.54
2019-05-31T09:43:19.008Z,1013.55
2019-05-31T09:44:04.192Z,1013.56
2019-05-31T09:45:04.185Z,1013.57
2019-05-31T09:46:04.180Z,1013.55
2019-05-31T09:47:04.177Z,1013.56
2019-05-31T09:48:04.238Z,1013.58
2019-05-31T09:49:04.166Z,1013.51
2019-05-31T09:50:12.793Z,1013.53
2019-05-31T09:51:04.156Z,1013.6
2019-05-31T09:52:04.155Z,1013.52
2019-05-31T09:53:04.154Z,1013.58
2019-05-31T09:54:04.146Z,1013.55
2019-05-31T09:55:04.227Z,1013.64
2019-05-31T09:56:04.136Z,1013.53
2019-05-31T09:57:04.131Z,1013.58
2019-05-31T09:58:04.129Z,1013.55
2019-05-31T09:59:04.124Z,1013.57
2019-05-31T10:00:04.120Z,1013.53
2019-05-31T10:01:04.123Z,1013.6
2019-05-31T10:02:04.115Z,1013.59
2019-05-31T10:03:04.112Z,1013.7
2019-05-31T10:04:04.117Z,1013.6
2019-05-31T10:05:04.673Z,1013.7
2019-05-31T10:06:04.351Z,1013.71
2019-05-31T10:07:04.336Z,1013.71
2019-05-31T10:08:09.570Z,1013.63
2019-05-31T10:09:04.095Z,1013.68
2019-05-31T10:10:04.107Z,1013.62
2019-05-31T10:11:04.100Z,1013.69
2019-05-31T10:12:04.087Z,1013.68
2019-05-31T10:13:04.165Z,1013.67
2019-05-31T10:14:04.080Z,1013.65
2019-05-31T10:15:04.126Z,1013.63
2019-05-31T10:16:04.074Z,1013.71
2019-05-31T10:17:04.071Z,1013.64
2019-05-31T10:18:04.081Z,1013.67
2019-05-31T10:19:04.065Z,1013.7
2019-05-31T10:20:04.063Z,1013.67
2019-05-31T10:21:04.102Z,1013.68
2019-05-31T10:22:04.055Z,1013.74
2019-05-31T10:23:04.053Z,1013.65
2019-05-31T10:24:04.050Z,1013.71
2019-05-31T10:25:04.047Z,1013.73
2019-05-31T10:26:04.045Z,1013.68
2019-05-31T10:27:04.039Z,1013.69
2019-05-31T10:28:04.033Z,1013.65
2019-05-31T10:29:04.049Z,1013.64
2019-05-31T10:30:04.027Z,1013.55
2019-05-31T10:31:14.746Z,1013.71
2019-05-31T10:32:04.251Z,1013.66
2019-05-31T10:33:04.085Z,1013.65
2019-05-31T10:34:04.335Z,1013.81
2019-05-31T10:35:04.006Z,1013.67
2019-05-31T10:36:04.002Z,1013.63
2019-05-31T10:37:03.996Z,1013.66
2019-05-31T10:38:04.003Z,1013.63
2019-05-31T10:39:03.988Z,1013.6
2019-05-31T10:40:03.985Z,1013.59
2019-05-31T10:41:03.984Z,1013.6
2019-05-31T10:42:16.956Z,1013.6
2019-05-31T10:43:03.974Z,1013.6
2019-05-31T10:44:03.974Z,1013.57
2019-05-31T10:45:03.974Z,1013.57
2019-05-31T10:46:03.969Z,1013.59
2019-05-31T10:47:03.964Z,1013.64
2019-05-31T10:48:03.961Z,1013.56
2019-05-31T10:49:06.499Z,1013.55
2019-05-31T10:50:03.963Z,1013.54
2019-05-31T10:51:03.956Z,1013.53
2019-05-31T10:52:03.958Z,1013.48
2019-05-31T10:53:03.953Z,1013.48
2019-05-31T10:54:03.951Z,1013.52
2019-05-31T10:55:03.947Z,1013.51
2019-05-31T10:56:03.945Z,1013.52
2019-05-31T10:57:03.994Z,1013.48
2019-05-31T10:58:03.942Z,1013.44
2019-05-31T10:59:03.938Z,1013.44
2019-05-31T11:00:05.917Z,1013.42
2019-05-31T11:01:03.931Z,1013.43
2019-05-31T11:02:03.940Z,1013.39
2019-05-31T11:03:03.929Z,1013.4
2019-05-31T11:04:03.925Z,1013.37
2019-05-31T11:05:03.922Z,1013.38
2019-05-31T11:06:03.921Z,1013.36
2019-05-31T11:07:03.918Z,1013.36
2019-05-31T11:08:03.918Z,1013.34
2019-05-31T11:09:03.920Z,1013.33
2019-05-31T11:10:03.914Z,1013.37
2019-05-31T11:11:03.952Z,1013.39
2019-05-31T11:12:03.915Z,1013.24
2019-05-31T11:13:03.915Z,1013.34
2019-05-31T11:14:03.906Z,1013.38
2019-05-31T11:15:03.910Z,1013.32
2019-05-31T11:16:03.963Z,1013.31
2019-05-31T11:17:05.475Z,1013.3
2019-05-31T11:18:04.164Z,1013.26
2019-05-31T11:19:03.962Z,1013.26
2019-05-31T11:20:04.773Z,1013.15
2019-05-31T11:21:04.133Z,1013.2
2019-05-31T11:22:04.122Z,1013.19
2019-05-31T11:23:04.280Z,1013.26
2019-05-31T11:24:03.893Z,1013.21
2019-05-31T11:25:03.897Z,1013.16
2019-05-31T11:26:03.892Z,1013.14
2019-05-31T11:27:03.971Z,1013.11
2019-05-31T11:28:04.006Z,1013.18
2019-05-31T11:29:03.889Z,1013.2
2019-05-31T11:30:03.899Z,1013.15
2019-05-31T11:31:03.886Z,1013.14
2019-05-31T11:32:03.924Z,1013.21
2019-05-31T11:33:03.883Z,1013.19
2019-05-31T11:34:03.882Z,1013.21
2019-05-31T11:35:05.083Z,1013.2
2019-05-31T11:36:03.882Z,1013.07
2019-05-31T11:37:03.877Z,1013.14
2019-05-31T11:38:03.887Z,1013.15
2019-05-31T11:39:03.872Z,1013.13
2019-05-31T11:40:03.879Z,1013.13
2019-05-31T11:41:04.097Z,1013.07
2019-05-31T11:42:03.867Z,1013.06
2019-05-31T11:43:09.155Z,1013.13
2019-05-31T11:45:19.267Z,1013.09
2019-05-31T11:46:19.264Z,1013.13
2019-05-31T11:47:19.262Z,1013.21
2019-05-31T11:48:19.265Z,1013.2
2019-05-31T11:49:19.261Z,1013.18
2019-05-31T11:50:19.257Z,1013.21
2019-05-31T11:51:28.594Z,1013.18
2019-05-31T11:52:19.251Z,1013.15
2019-05-31T11:53:19.268Z,1013.16
2019-05-31T11:54:19.249Z,1013.04
2019-05-31T11:55:23.799Z,1013.28
2019-05-31T11:56:19.244Z,1013.19
2019-05-31T11:57:19.345Z,1013.21
2019-05-31T11:58:19.243Z,1013.15
2019-05-31T11:59:19.234Z,1013.19
2019-05-31T12:00:20.560Z,1013.18
2019-05-31T12:01:19.234Z,1013.07
2019-05-31T12:02:19.234Z,1013.11
2019-05-31T12:03:19.230Z,1013.12
2019-05-31T12:04:19.227Z,1013.16
2019-05-31T12:05:19.226Z,1013.2
2019-05-31T12:06:19.226Z,1013.21
2019-05-31T12:07:19.222Z,1013.21
2019-05-31T12:08:19.223Z,1013.17
2019-05-31T12:09:19.222Z,1013.21